Time,TemperatureF,DewpointF,PressureIn,WindDirection,WindDirectionDegrees,WindSpeedMPH,WindSpeedGustMPH,Humidity,HourlyPrecipIn,Conditions,Clouds,dailyrainin,SoftwareType,DateUTC
2013-10-06 00:24:00,68.0,68.0,29.87,SSW,212,7.0,9.0,99,0.00,,,1.20,,2013-10-06 04:24:00,
2013-10-06 00:44:00,68.0,68.0,29.85,SSW,203,5.0,8.0,99,0.00,,,1.20,,2013-10-06 04:44:00,
2013-10-06 00:54:00,68.0,68.0,29.84,SSW,197,8.0,9.0,99,0.00,,,1.20,,2013-10-06 04:54:00,
2013-10-06 01:22:00,67.0,67.0,29.84,SSW,198,5.0,7.0,99,0.00,,,1.20,,2013-10-06 05:22:00,
2013-10-06 01:52:00,67.0,67.0,29.82,SSW,194,8.0,12.0,99,0.00,,,1.20,,2013-10-06 05:52:00,
2013-10-06 02:22:00,67.0,67.0,29.82,SSE,165,6.0,7.0,99,0.02,,,1.22,,2013-10-06 06:22:00,
2013-10-06 02:52:00,67.0,67.0,29.81,South,182,2.0,8.0,99,0.07,,,1.27,,2013-10-06 06:52:00,
2013-10-06 03:22:00,67.0,67.0,29.80,South,188,5.0,12.0,99,0.09,,,1.31,,2013-10-06 07:22:00,
2013-10-06 03:52:00,67.0,67.0,29.78,SSW,196,8.0,10.0,99,0.07,,,1.34,,2013-10-06 07:52:00,
2013-10-06 04:22:00,67.0,67.0,29.80,WSW,237,0.0,0.0,99,0.03,,,1.34,,2013-10-06 08:22:00,
2013-10-06 04:52:00,67.0,67.0,29.79,SW,224,0.0,0.0,99,0.00,,,1.34,,2013-10-06 08:52:00,
2013-10-06 05:22:00,67.0,67.0,29.79,SW,224,0.0,0.0,99,0.00,,,1.34,,2013-10-06 09:22:00,
2013-10-06 05:53:00,62.0,62.0,29.81,NW,306,7.0,9.0,99,0.01,,,1.35,,2013-10-06 09:53:00,
2013-10-06 06:23:00,58.0,58.0,29.82,WNW,296,5.0,10.0,99,0.04,,,1.38,,2013-10-06 10:23:00,
2013-10-06 06:53:00,58.0,58.0,29.81,WNW,298,2.0,5.0,99,0.05,,,1.40,,2013-10-06 10:53:00,
2013-10-06 07:21:00,57.0,57.0,29.82,WNW,294,0.0,0.0,99,0.02,,,1.40,,2013-10-06 11:21:00,
2013-10-06 07:52:00,57.0,57.0,29.80,NNW,333,0.0,0.0,99,0.01,,,1.41,,2013-10-06 11:52:00,
2013-10-06 08:22:00,57.0,57.0,29.80,NW,316,0.0,0.0,99,0.02,,,1.42,,2013-10-06 12:22:00,
2013-10-06 08:52:00,57.0,57.0,29.80,West,270,0.0,0.0,99,0.05,,,1.46,,2013-10-06 12:52:00,
2013-10-06 09:21:00,57.0,57.0,29.80,WNW,295,0.0,0.0,99,0.06,,,1.48,,2013-10-06 13:21:00,
2013-10-06 09:52:00,56.0,56.0,29.80,West,263,0.0,0.0,99,0.17,,,1.63,,2013-10-06 13:52:00,
2013-10-06 10:22:00,56.0,56.0,29.81,West,281,6.0,9.0,99,0.22,,,1.70,,2013-10-06 14:22:00,
2013-10-06 10:42:00,56.0,56.0,29.80,WNW,289,0.0,0.0,99,0.24,,,1.83,,2013-10-06 14:42:00,
2013-10-06 10:52:00,56.0,56.0,29.80,WNW,289,0.0,0.0,99,0.20,,,1.83,,2013-10-06 14:52:00,
2013-10-06 11:22:00,55.0,55.0,29.80,West,265,0.0,0.0,99,0.13,,,1.83,,2013-10-06 15:22:00,
2013-10-06 11:53:00,56.0,56.0,29.80,WNW,291,7.0,8.0,99,0.00,,,1.83,,2013-10-06 15:53:00,
2013-10-06 12:23:00,57.0,57.0,29.80,WNW,293,7.0,9.0,99,0.00,,,1.83,,2013-10-06 16:23:00,
2013-10-06 12:53:00,57.0,57.0,29.78,West,281,1.0,5.0,99,0.00,,,1.83,,2013-10-06 16:53:00,
2013-10-06 13:22:00,59.0,59.0,29.78,WNW,302,6.0,10.0,99,0.00,,,1.83,,2013-10-06 17:22:00,
2013-10-06 13:42:00,60.0,59.0,29.77,WNW,290,8.0,10.0,96,0.00,,,1.83,,2013-10-06 17:42:00,
2013-10-06 13:52:00,61.0,59.0,29.77,WNW,303,6.0,8.0,94,0.00,,,1.83,,2013-10-06 17:52:00,
2013-10-06 14:21:00,62.0,57.0,29.76,WNW,285,8.0,12.0,84,0.00,,,1.83,,2013-10-06 18:21:00,
2013-10-06 14:52:00,63.0,56.0,29.75,WNW,291,7.0,9.0,77,0.00,,,1.83,,2013-10-06 18:52:00,
2013-10-06 15:22:00,64.0,55.0,29.73,WSW,252,6.0,12.0,73,0.00,,,1.83,,2013-10-06 19:22:00,
2013-10-06 15:42:00,64.0,54.0,29.73,WNW,282,7.0,9.0,70,0.00,,,1.83,,2013-10-06 19:42:00,
2013-10-06 15:52:00,64.0,54.0,29.73,WNW,298,8.0,12.0,69,0.00,,,1.83,,2013-10-06 19:52:00,
2013-10-06 16:22:00,64.0,53.0,29.72,West,268,7.0,13.0,67,0.00,,,1.83,,2013-10-06 20:22:00,
2013-10-06 16:52:00,64.0,52.0,29.72,West,273,6.0,14.0,65,0.00,,,1.57,,2013-10-06 20:52:00,
2013-10-06 17:22:00,64.0,52.0,29.72,West,262,9.0,16.0,65,0.00,,,1.43,,2013-10-06 21:22:00,
2013-10-06 17:54:00,64.0,52.0,29.73,WNW,287,8.0,12.0,64,0.00,,,0.80,,2013-10-06 21:54:00,
2013-10-06 18:24:00,63.0,50.0,29.73,West,280,7.0,15.0,62,0.00,,,0.66,,2013-10-06 22:24:00,
2013-10-06 18:53:00,60.0,49.0,29.76,WNW,297,10.0,17.0,67,0.00,,,0.66,,2013-10-06 22:53:00,
2013-10-06 19:22:00,58.0,49.0,29.78,WNW,291,9.0,20.0,71,0.00,,,0.65,,2013-10-06 23:22:00,
2013-10-06 19:53:00,56.0,47.0,29.80,WNW,291,14.0,22.0,72,0.00,,,0.63,,2013-10-06 23:53:00,
2013-10-06 20:22:00,54.0,46.0,29.82,West,279,8.0,12.0,73,0.00,,,0.63,,2013-10-07 00:22:00,
2013-10-06 20:42:00,54.0,46.0,29.82,West,277,5.0,7.0,74,0.00,,,0.63,,2013-10-07 00:42:00,
2013-10-06 20:52:00,53.0,45.0,29.82,WNW,290,8.0,9.0,73,0.00,,,0.63,,2013-10-07 00:52:00,
2013-10-06 21:22:00,52.0,44.0,29.83,WNW,286,9.0,14.0,75,0.00,,,0.63,,2013-10-07 01:22:00,
2013-10-06 21:53:00,51.0,44.0,29.83,WNW,285,7.0,9.0,76,0.00,,,0.63,,2013-10-07 01:53:00,
2013-10-06 22:22:00,50.0,44.0,29.84,West,259,5.0,10.0,79,0.00,,,0.63,,2013-10-07 02:22:00,
2013-10-06 22:42:00,50.0,44.0,29.83,West,261,2.0,6.0,81,0.00,,,0.63,,2013-10-07 02:42:00,
2013-10-06 22:53:00,50.0,45.0,29.83,WSW,252,6.0,8.0,83,0.00,,,0.63,,2013-10-07 02:53:00,
2013-10-06 23:22:00,49.0,45.0,29.83,SW,234,5.0,8.0,85,0.00,,,0.63,,2013-10-07 03:22:00,
2013-10-06 23:54:00,49.0,45.0,29.83,SW,235,6.0,8.0,86,0.00,,,0.63,,2013-10-07 03:54:00,